createdAt,value
2022-12-31T00:00:52.856Z,951.91
2022-12-31T00:01:55.961Z,951.88
2022-12-31T00:02:59.026Z,951.84
2022-12-31T00:04:00.830Z,951.82
2022-12-31T00:05:02.902Z,951.8
2022-12-31T00:07:06.850Z,951.78
2022-12-31T00:08:08.861Z,951.83
2022-12-31T00:09:10.835Z,951.84
2022-12-31T00:10:12.871Z,951.88
2022-12-31T00:11:14.854Z,951.91
2022-12-31T00:12:16.842Z,951.95
2022-12-31T00:13:18.839Z,951.98
2022-12-31T00:14:20.861Z,951.97
2022-12-31T00:15:22.836Z,951.93
2022-12-31T00:16:24.912Z,951.98
2022-12-31T00:17:26.868Z,952
2022-12-31T00:18:28.846Z,952.03
2022-12-31T00:19:30.839Z,952.04
2022-12-31T00:20:32.839Z,952
2022-12-31T00:21:34.884Z,952.02
2022-12-31T00:22:36.844Z,952.06
2022-12-31T00:23:38.846Z,952.03
2022-12-31T00:24:40.841Z,952.02
2022-12-31T00:25:42.851Z,951.99
2022-12-31T00:26:44.882Z,952.03
2022-12-31T00:27:46.933Z,952.08
2022-12-31T00:28:48.852Z,952.12
2022-12-31T00:29:50.849Z,952.16
2022-12-31T00:30:52.876Z,952.15
2022-12-31T00:31:55.879Z,952.1
2022-12-31T00:32:58.848Z,952.09
2022-12-31T00:34:00.856Z,952.06
2022-12-31T00:35:16.578Z,952.08
2022-12-31T00:36:04.854Z,952.09
2022-12-31T00:37:06.853Z,952.1
2022-12-31T00:38:08.863Z,952.13
2022-12-31T00:39:10.851Z,952.12
2022-12-31T00:40:13.868Z,952.14
2022-12-31T00:41:15.878Z,952.16
2022-12-31T00:42:17.856Z,952.16
2022-12-31T00:43:19.904Z,952.15
2022-12-31T00:44:21.850Z,952.23
2022-12-31T00:45:23.854Z,952.36
2022-12-31T00:46:25.914Z,952.36
2022-12-31T00:47:27.859Z,952.35
2022-12-31T00:48:29.860Z,952.31
2022-12-31T00:49:31.858Z,952.33
2022-12-31T00:50:33.861Z,952.33
2022-12-31T00:51:35.866Z,952.33
2022-12-31T00:52:37.887Z,952.32
2022-12-31T00:53:40.863Z,952.32
2022-12-31T00:54:42.864Z,952.31
2022-12-31T00:55:44.865Z,952.28
2022-12-31T00:56:46.923Z,952.34
2022-12-31T00:57:48.879Z,952.36
2022-12-31T00:58:50.897Z,952.37
2022-12-31T00:59:52.885Z,952.4
2022-12-31T01:00:55.908Z,952.41
2022-12-31T01:02:00.050Z,952.44
2022-12-31T01:03:02.034Z,952.46
2022-12-31T01:04:03.899Z,952.41
2022-12-31T01:05:05.889Z,952.44
2022-12-31T01:06:07.877Z,952.52
2022-12-31T01:07:09.894Z,952.52
2022-12-31T01:08:11.918Z,952.57
2022-12-31T01:09:13.893Z,952.58
2022-12-31T01:10:15.877Z,952.63
2022-12-31T01:11:17.876Z,952.65
2022-12-31T01:12:19.889Z,952.65
2022-12-31T01:13:21.914Z,952.64
2022-12-31T01:14:25.239Z,952.7
2022-12-31T01:15:25.963Z,952.78
2022-12-31T01:16:27.880Z,952.77
2022-12-31T01:17:30.920Z,952.81
2022-12-31T01:18:32.918Z,952.82
2022-12-31T01:19:34.915Z,952.77
2022-12-31T01:20:36.888Z,952.77
2022-12-31T01:21:38.895Z,952.8
2022-12-31T01:22:40.889Z,952.79
2022-12-31T01:23:42.900Z,952.76
2022-12-31T01:24:44.931Z,952.85
2022-12-31T01:25:46.939Z,952.84
2022-12-31T01:26:48.896Z,952.92
2022-12-31T01:27:51.904Z,952.89
2022-12-31T01:28:53.916Z,952.91
2022-12-31T01:29:55.919Z,952.94
2022-12-31T01:31:00.035Z,953
2022-12-31T01:32:01.897Z,952.98
2022-12-31T01:33:03.946Z,953.05
2022-12-31T01:34:05.890Z,953
2022-12-31T01:35:07.892Z,953.04
2022-12-31T01:36:10.135Z,953.07
2022-12-31T01:37:11.896Z,953.07
2022-12-31T01:38:13.894Z,953.08
2022-12-31T01:39:15.904Z,953.09
2022-12-31T01:40:17.894Z,953.11
2022-12-31T01:41:19.945Z,953.12
2022-12-31T01:42:21.901Z,953.12
2022-12-31T01:43:23.901Z,953.12
2022-12-31T01:44:25.908Z,953.14
2022-12-31T01:45:27.901Z,953.18
2022-12-31T01:46:30.013Z,953.14
2022-12-31T01:47:31.910Z,953.16
2022-12-31T01:48:33.910Z,953.19
2022-12-31T01:49:35.930Z,953.14
2022-12-31T01:50:37.899Z,953.14
2022-12-31T01:51:39.943Z,953.13
2022-12-31T01:52:41.903Z,953.12
2022-12-31T01:53:43.912Z,953.13
2022-12-31T01:54:46.967Z,953.08
2022-12-31T01:55:48.910Z,953.13
2022-12-31T01:56:50.908Z,953.15
2022-12-31T01:57:52.938Z,953.11
2022-12-31T01:58:55.928Z,953.08
2022-12-31T01:59:58.910Z,953
2022-12-31T02:01:00.984Z,953.02
2022-12-31T02:02:02.989Z,953
2022-12-31T02:03:04.973Z,952.97
2022-12-31T02:04:06.958Z,953.02
2022-12-31T02:05:08.973Z,952.97
2022-12-31T02:06:10.917Z,953
2022-12-31T02:07:12.923Z,953.01
2022-12-31T02:08:14.977Z,953
2022-12-31T02:09:16.924Z,953.01
2022-12-31T02:10:18.916Z,952.99
2022-12-31T02:11:20.913Z,953
2022-12-31T02:12:22.923Z,952.95
2022-12-31T02:13:24.934Z,952.89
2022-12-31T02:14:26.926Z,952.95
2022-12-31T02:15:28.919Z,952.97
2022-12-31T02:16:30.932Z,952.99
2022-12-31T02:17:32.951Z,953.03
2022-12-31T02:18:34.948Z,953.01
2022-12-31T02:19:36.973Z,953
2022-12-31T02:20:38.952Z,953.06
2022-12-31T02:21:40.929Z,953
2022-12-31T02:22:42.931Z,953.03
2022-12-31T02:23:44.931Z,952.94
2022-12-31T02:24:46.978Z,952.92
2022-12-31T02:25:48.932Z,952.98
2022-12-31T02:26:51.940Z,952.97
2022-12-31T02:27:53.939Z,952.97
2022-12-31T02:28:55.953Z,953.01
2022-12-31T02:29:58.953Z,953.03
2022-12-31T02:31:00.983Z,953.06
2022-12-31T02:32:02.942Z,953
2022-12-31T02:33:04.946Z,953
2022-12-31T02:34:06.935Z,953.05
2022-12-31T02:35:08.965Z,953.02
2022-12-31T02:36:10.958Z,953.05
2022-12-31T02:37:12.937Z,953.05
2022-12-31T02:38:15.038Z,953.1
2022-12-31T02:39:16.946Z,953.06
2022-12-31T02:40:18.970Z,953.14
2022-12-31T02:41:20.938Z,953.12
2022-12-31T02:42:22.942Z,953.05
2022-12-31T02:43:24.987Z,953.04
2022-12-31T02:44:26.955Z,953.03
2022-12-31T02:45:29.956Z,953.04
2022-12-31T02:46:31.952Z,953.03
2022-12-31T02:47:33.943Z,953.05
2022-12-31T02:48:35.956Z,953
2022-12-31T02:49:37.946Z,953.01
2022-12-31T02:51:41.983Z,953.1
2022-12-31T02:52:43.952Z,953.05
2022-12-31T02:53:45.958Z,953.08
2022-12-31T02:54:47.962Z,953.12
2022-12-31T02:55:49.966Z,953.1
2022-12-31T02:56:51.957Z,953.06
2022-12-31T02:57:53.951Z,953.06
2022-12-31T02:58:55.968Z,953.03
2022-12-31T02:59:59.959Z,953.03
2022-12-31T03:01:02.056Z,953
2022-12-31T03:02:04.095Z,953.04
2022-12-31T03:03:05.967Z,953.04
2022-12-31T03:04:07.952Z,953.11
2022-12-31T03:05:09.971Z,953.06
2022-12-31T03:06:11.969Z,953.09
2022-12-31T03:07:13.960Z,953.09
2022-12-31T03:08:15.964Z,953.12
2022-12-31T03:09:17.978Z,953.12
2022-12-31T03:10:34.695Z,953.02
2022-12-31T03:11:21.959Z,953.02
2022-12-31T03:12:24.003Z,953
2022-12-31T03:13:26.962Z,952.98
2022-12-31T03:14:28.962Z,952.87
2022-12-31T03:15:30.955Z,952.92
2022-12-31T03:16:33.020Z,952.88
2022-12-31T03:17:34.992Z,952.84
2022-12-31T03:18:36.971Z,952.85
2022-12-31T03:19:38.964Z,952.85
2022-12-31T03:20:40.968Z,952.78
2022-12-31T03:21:43.008Z,952.79
2022-12-31T03:22:44.991Z,952.79
2022-12-31T03:23:47.033Z,952.79
2022-12-31T03:24:48.975Z,952.83
2022-12-31T03:25:51.000Z,952.83
2022-12-31T03:26:52.976Z,952.76
2022-12-31T03:27:56.035Z,952.68
2022-12-31T03:28:58.975Z,952.68
2022-12-31T03:30:00.980Z,952.75
2022-12-31T03:31:03.084Z,952.79
2022-12-31T03:33:06.980Z,952.88
2022-12-31T03:34:08.978Z,952.89
2022-12-31T03:35:10.974Z,952.93
2022-12-31T03:36:13.008Z,952.95
2022-12-31T03:37:14.983Z,953.01
2022-12-31T03:38:17.033Z,952.96
2022-12-31T03:39:19.008Z,952.88
2022-12-31T03:40:20.992Z,952.95
2022-12-31T03:41:22.975Z,952.96
2022-12-31T03:42:24.984Z,952.93
2022-12-31T03:43:28.991Z,952.98
2022-12-31T03:44:31.032Z,952.95
2022-12-31T03:45:33.046Z,952.95
2022-12-31T03:46:34.983Z,952.95
2022-12-31T03:47:36.984Z,952.86
2022-12-31T03:48:38.984Z,952.9
2022-12-31T03:49:41.003Z,952.91
2022-12-31T03:50:43.076Z,952.91
2022-12-31T03:51:44.989Z,952.92
2022-12-31T03:52:46.996Z,952.94
2022-12-31T03:53:49.016Z,952.89
2022-12-31T03:54:51.019Z,952.92
2022-12-31T03:55:54.003Z,952.92
2022-12-31T03:57:00.081Z,953
2022-12-31T03:57:59.994Z,952.97
2022-12-31T03:59:01.998Z,952.95
2022-12-31T04:00:04.031Z,952.96
2022-12-31T04:01:06.191Z,952.97
2022-12-31T04:02:08.160Z,952.93
2022-12-31T04:03:10.036Z,952.96
2022-12-31T04:04:11.995Z,952.89
2022-12-31T04:05:14.046Z,952.89
2022-12-31T04:06:16.016Z,952.93
2022-12-31T04:07:18.003Z,952.96
2022-12-31T04:08:21.052Z,952.97
2022-12-31T04:09:23.009Z,952.99
2022-12-31T04:10:25.041Z,952.95
2022-12-31T04:11:26.998Z,952.91
2022-12-31T04:12:29.009Z,952.94
2022-12-31T04:13:31.007Z,952.96
2022-12-31T04:14:33.008Z,953.02
2022-12-31T04:15:35.029Z,952.98
2022-12-31T04:16:37.067Z,952.99
2022-12-31T04:17:39.020Z,952.93
2022-12-31T04:18:41.025Z,953.06
2022-12-31T04:19:53.100Z,953.01
2022-12-31T04:21:08.798Z,953.07
2022-12-31T04:21:47.058Z,953.02
2022-12-31T04:22:49.008Z,953.05
2022-12-31T04:23:51.051Z,953.03
2022-12-31T04:24:53.021Z,953.12
2022-12-31T04:25:56.103Z,953.11
2022-12-31T04:27:05.380Z,953.08
2022-12-31T04:28:01.044Z,953.04
2022-12-31T04:29:03.076Z,953.11
2022-12-31T04:30:05.084Z,953.13
2022-12-31T04:31:07.056Z,953.13
2022-12-31T04:32:09.126Z,953.14
2022-12-31T04:33:11.027Z,953.13
2022-12-31T04:34:13.098Z,953.09
2022-12-31T04:35:15.057Z,953.03
2022-12-31T04:36:17.073Z,953.04
2022-12-31T04:37:19.039Z,953.04
2022-12-31T04:38:21.023Z,953.09
2022-12-31T04:39:23.048Z,953.05
2022-12-31T04:40:25.025Z,953.04
2022-12-31T04:41:27.065Z,953.11
2022-12-31T04:42:29.040Z,953.09
2022-12-31T04:43:31.029Z,953.17
2022-12-31T04:44:33.055Z,953.25
2022-12-31T04:45:35.106Z,953.2
2022-12-31T04:46:37.078Z,953.18
2022-12-31T04:47:39.088Z,953.31
2022-12-31T04:48:41.030Z,953.32
2022-12-31T04:49:43.084Z,953.25
2022-12-31T04:50:45.030Z,953.32
2022-12-31T04:51:47.080Z,953.25
2022-12-31T04:52:49.035Z,953.22
2022-12-31T04:53:51.044Z,953.2
2022-12-31T04:56:59.075Z,953.36
2022-12-31T04:58:01.035Z,953.42
2022-12-31T04:59:03.043Z,953.44
2022-12-31T05:00:05.048Z,953.43
2022-12-31T05:01:07.183Z,953.46
2022-12-31T05:02:09.191Z,953.53
2022-12-31T05:03:11.114Z,953.48
2022-12-31T05:04:13.044Z,953.49
2022-12-31T05:05:15.036Z,953.41
2022-12-31T05:06:17.052Z,953.47
2022-12-31T05:07:19.042Z,953.52
2022-12-31T05:08:21.081Z,953.54
2022-12-31T05:09:23.109Z,953.51
2022-12-31T05:10:25.053Z,953.51
2022-12-31T05:11:27.050Z,953.44
2022-12-31T05:12:29.057Z,953.36
2022-12-31T05:13:33.341Z,953.4
2022-12-31T05:14:33.062Z,953.32
2022-12-31T05:15:35.063Z,953.39
2022-12-31T05:16:37.076Z,953.34
2022-12-31T05:17:39.053Z,953.28
2022-12-31T06:04:31.507Z,953.28
2022-12-31T06:09:17.009Z,953.32
2022-12-31T06:10:45.269Z,953.34
2022-12-31T06:11:45.438Z,953.33
2022-12-31T06:12:45.900Z,953.42
2022-12-31T06:13:50.543Z,953.45
2022-12-31T06:14:53.228Z,953.47
2022-12-31T06:15:55.256Z,953.4
2022-12-31T06:16:58.232Z,953.51
2022-12-31T06:18:00.268Z,953.44
2022-12-31T06:19:02.248Z,953.46
2022-12-31T06:20:10.493Z,953.52
2022-12-31T06:21:06.266Z,953.51
2022-12-31T06:22:08.224Z,953.52
2022-12-31T06:23:10.223Z,953.57
2022-12-31T06:24:12.268Z,953.46
2022-12-31T06:25:14.233Z,953.5
2022-12-31T06:26:17.245Z,953.5
2022-12-31T06:27:21.225Z,953.51
2022-12-31T06:28:24.264Z,953.49
2022-12-31T06:29:26.300Z,953.45
2022-12-31T06:30:28.232Z,953.45
2022-12-31T06:31:30.253Z,953.45
2022-12-31T06:32:34.235Z,953.43
2022-12-31T06:33:37.255Z,953.5
2022-12-31T06:34:39.237Z,953.5
2022-12-31T06:35:41.260Z,953.47
2022-12-31T06:36:43.244Z,953.58
2022-12-31T06:37:45.235Z,953.57
2022-12-31T06:38:47.309Z,953.49
2022-12-31T06:39:49.237Z,953.54
2022-12-31T06:40:51.234Z,953.44
2022-12-31T06:43:00.196Z,953.56
2022-12-31T06:44:00.276Z,953.49
2022-12-31T06:45:02.242Z,953.53
2022-12-31T06:46:04.295Z,953.48
2022-12-31T06:47:06.240Z,953.42
2022-12-31T06:48:08.276Z,953.46
2022-12-31T06:49:10.279Z,953.37
2022-12-31T06:50:45.292Z,953.41
2022-12-31T06:51:45.299Z,953.42
2022-12-31T06:52:45.292Z,953.45
2022-12-31T06:53:45.314Z,953.43
2022-12-31T06:54:45.363Z,953.4
2022-12-31T06:55:45.319Z,953.45
2022-12-31T06:56:45.293Z,953.48
2022-12-31T06:57:45.307Z,953.54
2022-12-31T06:58:45.307Z,953.46
2022-12-31T06:59:45.314Z,953.48
2022-12-31T07:00:45.302Z,953.51
2022-12-31T07:01:45.406Z,953.42
2022-12-31T07:02:45.411Z,953.53
2022-12-31T07:03:45.322Z,953.55
2022-12-31T07:04:45.314Z,953.52
2022-12-31T07:05:45.302Z,953.55
2022-12-31T07:06:46.249Z,953.45
2022-12-31T07:07:48.258Z,953.46
2022-12-31T07:08:50.269Z,953.51
2022-12-31T07:09:52.307Z,953.52
2022-12-31T07:10:54.261Z,953.56
2022-12-31T07:11:56.255Z,953.57
2022-12-31T07:14:00.612Z,953.61
2022-12-31T07:15:02.460Z,953.63
2022-12-31T07:16:04.383Z,953.63
2022-12-31T07:17:07.263Z,953.69
2022-12-31T07:18:09.264Z,953.81
2022-12-31T07:19:11.448Z,953.77
2022-12-31T07:20:13.268Z,953.84
2022-12-31T07:21:15.269Z,953.81
2022-12-31T07:22:17.308Z,953.82
2022-12-31T07:23:20.269Z,953.8
2022-12-31T07:24:22.301Z,953.86
2022-12-31T07:25:24.266Z,953.87
2022-12-31T07:26:26.274Z,953.92
2022-12-31T07:28:31.271Z,953.84
2022-12-31T07:29:33.451Z,953.91
2022-12-31T07:30:35.291Z,953.96
2022-12-31T07:31:37.330Z,953.97
2022-12-31T07:32:39.277Z,953.93
2022-12-31T07:33:42.286Z,953.98
2022-12-31T07:34:44.316Z,953.99
2022-12-31T07:35:48.273Z,954.02
2022-12-31T07:36:50.270Z,954.09
2022-12-31T07:37:52.282Z,954.11
2022-12-31T07:38:54.283Z,954.12
2022-12-31T07:39:57.296Z,954.06
2022-12-31T07:41:00.619Z,954.02
2022-12-31T07:42:01.295Z,954.11
2022-12-31T07:43:03.316Z,954.04
2022-12-31T07:44:05.274Z,954.04
2022-12-31T07:45:07.490Z,954.09
2022-12-31T07:46:09.330Z,954.05
2022-12-31T07:47:11.281Z,954.03
2022-12-31T07:48:13.280Z,954.1
2022-12-31T07:49:15.292Z,954.1
2022-12-31T07:50:17.356Z,954.07
2022-12-31T07:51:20.299Z,954.05
2022-12-31T07:52:22.299Z,954.16
2022-12-31T07:53:24.292Z,954.15
2022-12-31T07:54:26.293Z,954.18
2022-12-31T07:55:29.305Z,954.16
2022-12-31T07:56:31.291Z,954.14
2022-12-31T07:57:33.296Z,954.19
2022-12-31T07:58:36.297Z,954.16
2022-12-31T07:59:38.301Z,954.22
2022-12-31T08:00:41.471Z,954.23
2022-12-31T08:01:43.467Z,954.23
2022-12-31T08:02:45.337Z,954.28
2022-12-31T08:03:47.305Z,954.3
2022-12-31T08:04:49.302Z,954.35
2022-12-31T08:05:51.477Z,954.29
2022-12-31T08:06:53.308Z,954.28
2022-12-31T08:08:59.004Z,954.39
2022-12-31T08:10:01.325Z,954.39
2022-12-31T08:11:45.567Z,954.45
2022-12-31T08:13:45.350Z,954.31
2022-12-31T08:14:45.375Z,954.34
2022-12-31T08:15:45.542Z,954.38
2022-12-31T08:16:45.447Z,954.38
2022-12-31T08:17:45.370Z,954.48
2022-12-31T08:18:45.422Z,954.44
2022-12-31T08:19:45.410Z,954.43
2022-12-31T08:20:45.372Z,954.46
2022-12-31T08:21:45.469Z,954.49
2022-12-31T08:22:45.415Z,954.45
2022-12-31T08:23:45.403Z,954.48
2022-12-31T08:24:45.364Z,954.53
2022-12-31T08:25:45.405Z,954.42
2022-12-31T08:26:49.519Z,954.44
2022-12-31T08:27:45.358Z,954.53
2022-12-31T08:28:45.363Z,954.58
2022-12-31T08:33:45.410Z,954.51
2022-12-31T08:34:45.374Z,954.63
2022-12-31T09:02:47.760Z,954.58
2022-12-31T09:02:47.831Z,954.56
2022-12-31T09:02:55.731Z,954.77
2022-12-31T09:05:00.319Z,954.85
2022-12-31T09:06:02.350Z,954.94
2022-12-31T09:07:04.323Z,954.89
2022-12-31T09:09:19.958Z,954.88
2022-12-31T09:19:25.055Z,954.89
2022-12-31T09:20:36.349Z,954.9
2022-12-31T09:21:28.862Z,954.94
2022-12-31T09:22:30.853Z,954.96
2022-12-31T09:23:32.857Z,955.01
2022-12-31T09:24:34.878Z,955.08
2022-12-31T09:26:38.871Z,954.97
2022-12-31T09:27:40.868Z,955.02
2022-12-31T09:28:43.884Z,955.08
2022-12-31T09:29:45.851Z,955.06
2022-12-31T09:30:47.866Z,955.09
2022-12-31T09:31:49.889Z,954.96
2022-12-31T09:32:56.861Z,954.99
2022-12-31T09:36:15.254Z,954.98
2022-12-31T09:37:19.222Z,955.01
2022-12-31T09:38:21.264Z,955.04
2022-12-31T09:39:23.263Z,955.04
2022-12-31T09:41:41.465Z,955.02
2022-12-31T09:42:29.237Z,955.1
2022-12-31T09:43:32.241Z,955.02
2022-12-31T09:44:34.225Z,955.01
2022-12-31T09:46:38.241Z,955.04
2022-12-31T09:47:40.239Z,955.04
2022-12-31T09:48:42.240Z,955
2022-12-31T09:49:55.756Z,955.05
2022-12-31T09:50:55.801Z,955.07
2022-12-31T09:52:51.236Z,955.07
2022-12-31T09:53:53.295Z,955.13
2022-12-31T09:54:55.265Z,955.07
2022-12-31T09:55:57.253Z,955.13
2022-12-31T09:58:02.267Z,955.13
2022-12-31T09:59:05.247Z,955.12
2022-12-31T10:06:00.175Z,955.15
2022-12-31T10:07:02.185Z,955.28
2022-12-31T10:08:06.117Z,955.29
2022-12-31T10:09:08.134Z,955.26
2022-12-31T10:10:10.159Z,955.22
2022-12-31T10:11:13.112Z,955.17
2022-12-31T10:12:15.129Z,955.18
2022-12-31T10:13:55.809Z,955.18
2022-12-31T10:14:55.784Z,955.21
2022-12-31T10:15:55.782Z,955.16
2022-12-31T10:16:55.867Z,955.11
2022-12-31T10:18:55.790Z,955.15
2022-12-31T10:55:33.114Z,955.11
2022-12-31T10:55:33.607Z,955.08
2022-12-31T10:56:18.088Z,955.2
2022-12-31T10:57:20.352Z,955.2
2022-12-31T10:58:22.357Z,955.2
2022-12-31T10:59:24.345Z,955.17
2022-12-31T11:00:26.341Z,955.14
2022-12-31T11:01:28.442Z,955.12
2022-12-31T11:02:30.578Z,955.06
2022-12-31T11:03:32.408Z,955.07
2022-12-31T11:04:34.372Z,955.09
2022-12-31T11:08:46.185Z,954.99
2022-12-31T11:09:48.183Z,955.04
2022-12-31T11:10:50.185Z,955.01
2022-12-31T11:11:52.206Z,955.04
2022-12-31T11:15:39.033Z,954.99
2022-12-31T11:16:38.978Z,954.96
2022-12-31T11:17:38.988Z,954.97
2022-12-31T11:18:38.946Z,954.98
2022-12-31T11:19:38.942Z,954.93
2022-12-31T11:20:38.960Z,954.97
2022-12-31T11:21:41.327Z,954.88
2022-12-31T11:22:39.160Z,954.91
2022-12-31T11:23:40.925Z,954.92
2022-12-31T11:24:43.920Z,954.81
2022-12-31T11:25:45.945Z,954.8
2022-12-31T11:26:47.933Z,954.78
2022-12-31T11:27:50.061Z,954.81
2022-12-31T11:28:51.935Z,954.85
2022-12-31T11:29:53.927Z,954.78
2022-12-31T11:31:38.957Z,954.76
2022-12-31T11:32:38.952Z,954.82
2022-12-31T11:33:38.950Z,954.78
2022-12-31T11:35:38.970Z,954.86
2022-12-31T11:36:38.961Z,954.86
2022-12-31T11:38:38.982Z,954.86
2022-12-31T11:39:38.977Z,954.84
2022-12-31T11:40:38.962Z,954.9
2022-12-31T11:41:38.964Z,954.84
2022-12-31T11:42:38.959Z,954.76
2022-12-31T11:45:27.870Z,954.82
2022-12-31T11:46:30.123Z,954.75
2022-12-31T11:48:34.084Z,954.7
2022-12-31T11:49:36.063Z,954.69
2022-12-31T11:50:41.990Z,954.64
2022-12-31T11:51:50.158Z,954.67
2022-12-31T11:52:46.990Z,954.7
2022-12-31T11:53:49.002Z,954.52
2022-12-31T11:54:51.032Z,954.6
2022-12-31T11:55:53.995Z,954.61
2022-12-31T11:56:56.067Z,954.6
2022-12-31T11:57:57.984Z,954.57
2022-12-31T11:59:02.543Z,954.57
2022-12-31T12:00:02.039Z,954.64
2022-12-31T12:04:56.951Z,954.65
2022-12-31T12:05:59.955Z,954.66
2022-12-31T12:07:09.819Z,954.63
2022-12-31T12:08:38.992Z,954.7
2022-12-31T12:11:21.933Z,954.68
2022-12-31T12:11:38.980Z,954.65
2022-12-31T12:12:38.973Z,954.66
2022-12-31T12:13:38.982Z,954.64
2022-12-31T12:14:39.045Z,954.65
2022-12-31T12:15:38.997Z,954.68
2022-12-31T12:17:35.806Z,954.66
2022-12-31T12:17:53.672Z,954.65
2022-12-31T12:18:56.679Z,954.69
2022-12-31T12:20:38.991Z,954.56
2022-12-31T12:22:39.025Z,954.65
2022-12-31T12:23:38.994Z,954.66
2022-12-31T12:24:39.000Z,954.68
2022-12-31T12:25:38.988Z,954.69
2022-12-31T12:26:39.000Z,954.61
2022-12-31T12:29:16.701Z,954.69
2022-12-31T12:35:59.304Z,954.71
2022-12-31T12:38:01.344Z,954.65
2022-12-31T12:39:23.391Z,954.63
2022-12-31T12:48:30.345Z,954.73
2022-12-31T12:48:30.847Z,954.68
2022-12-31T12:49:25.577Z,954.7
2022-12-31T12:50:27.581Z,954.74
2022-12-31T12:51:29.585Z,954.71
2022-12-31T12:52:31.592Z,954.77
2022-12-31T12:53:33.577Z,954.8
2022-12-31T12:54:35.573Z,954.8
2022-12-31T12:55:37.573Z,954.83
2022-12-31T12:56:39.587Z,954.83
2022-12-31T12:57:41.574Z,954.72
2022-12-31T12:58:43.585Z,954.78
2022-12-31T12:59:45.600Z,954.88
2022-12-31T13:00:47.637Z,954.82
2022-12-31T13:01:50.752Z,954.79
2022-12-31T13:02:53.645Z,954.84
2022-12-31T13:04:32.381Z,954.81
2022-12-31T13:04:57.604Z,954.78
2022-12-31T13:06:01.591Z,954.75
2022-12-31T13:07:03.612Z,954.83
2022-12-31T13:08:05.632Z,954.72
2022-12-31T13:09:07.635Z,954.73
2022-12-31T13:10:09.809Z,954.72
2022-12-31T13:11:13.590Z,954.73
2022-12-31T13:12:17.595Z,954.68
2022-12-31T13:13:24.831Z,954.76
2022-12-31T13:15:24.601Z,954.92
2022-12-31T13:16:26.649Z,954.83
2022-12-31T13:17:28.592Z,954.9
2022-12-31T13:18:30.600Z,954.86
2022-12-31T13:20:49.131Z,954.79
2022-12-31T13:23:55.393Z,954.69
2022-12-31T13:25:14.024Z,954.74
2022-12-31T13:26:05.143Z,954.79
2022-12-31T13:28:09.001Z,954.77
2022-12-31T13:29:11.017Z,954.75
2022-12-31T13:30:13.013Z,954.85
2022-12-31T13:31:15.106Z,954.82
2022-12-31T13:32:19.014Z,954.81
2022-12-31T13:33:21.014Z,954.79
2022-12-31T13:34:23.018Z,954.77
2022-12-31T13:35:25.059Z,954.87
2022-12-31T13:36:27.018Z,954.85
2022-12-31T13:37:29.018Z,954.81
2022-12-31T13:38:31.017Z,954.79
2022-12-31T13:39:33.027Z,954.88
2022-12-31T13:40:35.035Z,954.87
2022-12-31T13:41:37.012Z,954.87
2022-12-31T13:43:45.793Z,954.93
2022-12-31T13:44:44.019Z,954.83
2022-12-31T13:46:00.620Z,954.79
2022-12-31T13:47:04.517Z,954.8
2022-12-31T13:48:06.516Z,954.91
2022-12-31T13:50:14.419Z,955
2022-12-31T13:51:55.440Z,954.87
2022-12-31T13:52:55.416Z,954.95
2022-12-31T13:54:32.046Z,954.91
2022-12-31T13:55:56.922Z,954.97
2022-12-31T13:56:55.441Z,954.98
2022-12-31T13:57:55.433Z,954.93
2022-12-31T13:58:55.414Z,954.91
2022-12-31T13:59:55.421Z,955.06
2022-12-31T14:01:55.653Z,954.89
2022-12-31T14:02:55.496Z,954.93
2022-12-31T14:03:55.422Z,954.94
2022-12-31T14:04:56.124Z,954.96
2022-12-31T14:05:58.075Z,955.01
2022-12-31T14:10:08.092Z,955.04
2022-12-31T14:13:15.007Z,955.12
2022-12-31T14:15:13.176Z,955.06
2022-12-31T14:15:55.454Z,955.09
2022-12-31T14:16:55.489Z,955.11
2022-12-31T14:17:55.425Z,955.13
2022-12-31T14:18:55.424Z,955.1
2022-12-31T14:19:55.500Z,955.16
2022-12-31T14:20:55.441Z,955.09
2022-12-31T14:21:55.426Z,955.06
2022-12-31T14:22:55.428Z,955.07
2022-12-31T14:23:55.425Z,955.16
2022-12-31T14:24:55.431Z,955.1
2022-12-31T14:25:55.447Z,955.15
2022-12-31T14:26:55.442Z,955.13
2022-12-31T14:27:55.450Z,955.13
2022-12-31T14:29:55.455Z,955.21
2022-12-31T14:30:55.429Z,955.17
2022-12-31T14:31:57.148Z,955.13
2022-12-31T14:33:13.168Z,955.19
2022-12-31T14:34:01.115Z,955.24
2022-12-31T14:35:04.074Z,955.25
2022-12-31T14:36:10.322Z,955.27
2022-12-31T14:37:10.092Z,955.23
2022-12-31T14:38:12.083Z,955.27
2022-12-31T14:39:14.081Z,955.28
2022-12-31T14:40:16.082Z,955.25
2022-12-31T14:41:18.101Z,955.27
2022-12-31T14:42:20.090Z,955.27
2022-12-31T14:43:22.082Z,955.32
2022-12-31T14:46:29.715Z,955.33
2022-12-31T14:49:53.866Z,955.3
2022-12-31T14:50:55.860Z,955.3
2022-12-31T14:51:57.889Z,955.4
2022-12-31T14:52:59.908Z,955.43
2022-12-31T14:55:04.857Z,955.44
2022-12-31T14:56:07.479Z,955.44
2022-12-31T14:58:26.460Z,955.45
2022-12-31T14:59:13.951Z,955.49
2022-12-31T15:00:16.024Z,955.5
2022-12-31T15:01:18.009Z,955.54
2022-12-31T15:02:20.123Z,955.47
2022-12-31T15:04:26.454Z,955.46
2022-12-31T15:05:58.734Z,955.45
2022-12-31T15:06:55.469Z,955.41
2022-12-31T15:07:55.478Z,955.45
2022-12-31T15:08:55.470Z,955.41
2022-12-31T15:09:55.462Z,955.53
2022-12-31T15:10:55.471Z,955.5
2022-12-31T15:11:55.496Z,955.49
2022-12-31T15:12:55.460Z,955.42
2022-12-31T15:13:55.476Z,955.38
2022-12-31T15:15:55.476Z,955.38
2022-12-31T15:16:56.382Z,955.43
2022-12-31T15:18:03.229Z,955.52
2022-12-31T15:19:00.294Z,955.55
2022-12-31T15:20:02.273Z,955.57
2022-12-31T15:21:04.347Z,955.58
2022-12-31T15:22:06.275Z,955.59
2022-12-31T15:23:08.360Z,955.52
2022-12-31T15:25:13.293Z,955.65
2022-12-31T15:26:15.290Z,955.59
2022-12-31T15:27:17.296Z,955.59
2022-12-31T15:29:22.287Z,955.56
2022-12-31T15:30:24.277Z,955.53
2022-12-31T15:31:27.419Z,955.55
2022-12-31T15:32:30.296Z,955.48
2022-12-31T15:33:33.287Z,955.51
2022-12-31T15:34:36.297Z,955.47
2022-12-31T15:35:38.300Z,955.47
2022-12-31T15:36:40.351Z,955.45
2022-12-31T15:37:42.300Z,955.53
2022-12-31T15:38:44.297Z,955.56
2022-12-31T15:39:46.295Z,955.59
2022-12-31T15:40:48.320Z,955.63
2022-12-31T15:42:35.528Z,955.61
2022-12-31T15:42:52.294Z,955.62
2022-12-31T15:43:54.294Z,955.62
2022-12-31T15:44:56.297Z,955.69
2022-12-31T15:46:00.054Z,955.68
2022-12-31T15:51:09.949Z,955.76
2022-12-31T15:52:22.001Z,955.61
2022-12-31T15:53:55.545Z,955.72
2022-12-31T15:54:55.511Z,955.7
2022-12-31T15:55:55.497Z,955.72
2022-12-31T15:57:22.963Z,955.68
2022-12-31T15:58:24.926Z,955.71
2022-12-31T15:59:26.939Z,955.71
2022-12-31T16:01:32.066Z,955.72
2022-12-31T16:02:34.078Z,955.72
2022-12-31T16:03:36.000Z,955.79
2022-12-31T16:04:55.519Z,955.73
2022-12-31T16:05:55.521Z,955.77
2022-12-31T16:06:55.504Z,955.79
2022-12-31T16:07:55.535Z,955.76
2022-12-31T16:08:55.528Z,955.75
2022-12-31T16:12:55.534Z,955.9
2022-12-31T16:13:55.941Z,955.89
2022-12-31T16:14:57.935Z,955.9
2022-12-31T16:17:20.227Z,955.95
2022-12-31T16:18:23.220Z,955.92
2022-12-31T16:20:27.207Z,955.98
2022-12-31T16:21:30.253Z,955.95
2022-12-31T16:23:42.072Z,955.97
2022-12-31T16:24:48.960Z,955.94
2022-12-31T16:25:55.543Z,955.97
2022-12-31T16:26:55.523Z,956.02
2022-12-31T16:27:55.525Z,956.02
2022-12-31T16:28:55.529Z,956.01
2022-12-31T16:29:56.010Z,956.06
2022-12-31T16:30:55.602Z,956.04
2022-12-31T16:31:55.560Z,956.09
2022-12-31T16:32:55.523Z,956.01
2022-12-31T16:33:56.195Z,956.04
2022-12-31T16:38:08.029Z,956.15
2022-12-31T16:41:14.049Z,956.22
2022-12-31T16:42:55.540Z,956.19
2022-12-31T16:44:20.044Z,956.17
2022-12-31T16:45:21.993Z,956.19
2022-12-31T16:46:24.052Z,956.14
2022-12-31T16:48:28.007Z,956.19
2022-12-31T16:49:31.984Z,956.26